Time;durP1;ratioP1;P1;durP2;ratioP2;P2;SDS_P1;SDS_P2;PMS_P1;PMS_P2;Temp;Humidity;BMP_temperature;BMP_pressure;BME280_temperature;BME280_humidity;BME280_pressure;Samples;Min_cycle;Max_cycle;Signal;HPM_P1;HPM_P2
2022/01/07 00:00:16;;;;;;;;;;;;;;;11.26;60.55;100955.97;1057762;28;621;-60
2022/01/07 00:01:07;;;;;;;;;;;;;;;11.26;59.90;100960.44;1057699;28;765;-60
2022/01/07 00:01:57;;;;;;;;;;;;;;;11.26;60.20;100969.28;1057910;28;637;-60
2022/01/07 00:02:47;;;;;;;;;;;;;;;11.26;60.06;100963.09;1057861;28;837;-60
2022/01/07 00:03:38;;;;;;;;;;;;;;;11.25;59.78;100953.38;1057855;28;673;-61
2022/01/07 00:04:31;;;;;;;;;;;;;;;11.23;60.12;100950.81;1057836;28;669;-60
2022/01/07 00:05:21;;;;;;;;;;;;;;;11.23;59.83;100956.16;1057823;28;727;-60
2022/01/07 00:06:12;;;;;;;;;;;;;;;11.26;60.00;100947.09;1057739;28;676;-60
2022/01/07 00:07:02;;;;;;;;;;;;;;;11.25;59.72;100940.91;1057797;28;783;-60
2022/01/07 00:07:53;;;;;;;;;;;;;;;11.25;59.87;100946.25;1057783;28;633;-60
2022/01/07 00:08:43;;;;;;;;;;;;;;;11.27;60.21;100946.13;1057729;28;650;-60
2022/01/07 00:09:34;;;;;;;;;;;;;;;11.27;59.98;100936.31;1058417;28;692;-60
2022/01/07 00:10:24;;;;;;;;;;;;;;;11.28;59.95;100940.72;1057714;28;701;-60
2022/01/07 00:11:14;;;;;;;;;;;;;;;11.30;59.99;100943.25;1057732;28;866;-60
2022/01/07 00:12:05;;;;;;;;;;;;;;;11.30;60.18;100941.44;1057719;28;637;-60
2022/01/07 00:12:55;;;;;;;;;;;;;;;11.30;59.67;100941.44;1057813;28;1901;-60
2022/01/07 00:13:46;;;;;;;;;;;;;;;11.32;59.88;100938.66;1057680;28;767;-60
2022/01/07 00:14:36;;;;;;;;;;;;;;;11.31;59.60;100945.81;1057826;28;731;-60
2022/01/07 00:15:27;;;;;;;;;;;;;;;11.32;59.92;100950.19;1057583;28;865;-60
2022/01/07 00:16:17;;;;;;;;;;;;;;;11.31;59.51;100943.16;1057600;28;746;-60
2022/01/07 00:17:07;;;;;;;;;;;;;;;11.32;59.74;100946.66;1057774;28;773;-61
2022/01/07 00:17:58;;;;;;;;;;;;;;;11.32;59.76;100947.53;1057731;28;629;-60
2022/01/07 00:18:48;;;;;;;;;;;;;;;11.32;60.08;100938.66;1057821;28;668;-60
2022/01/07 00:19:39;;;;;;;;;;;;;;;11.33;60.06;100941.22;1057626;28;737;-60
2022/01/07 00:20:29;;;;;;;;;;;;;;;11.33;59.79;100935.91;1057875;28;640;-60
2022/01/07 00:21:20;;;;;;;;;;;;;;;11.32;60.18;100934.19;1057404;28;1756;-61
2022/01/07 00:22:11;;;;;;;;;;;;;;;11.32;60.15;100934.19;1058321;28;628;-60
2022/01/07 00:23:01;;;;;;;;;;;;;;;11.32;59.94;100934.19;1057723;28;700;-60
2022/01/07 00:23:52;;;;;;;;;;;;;;;11.32;59.50;100928.84;1053032;28;881;-60
2022/01/07 00:24:42;;;;;;;;;;;;;;;11.32;59.55;100933.31;1056829;28;806;-60
2022/01/07 00:25:33;;;;;;;;;;;;;;;11.32;59.64;100917.31;1056908;28;983;-60
2022/01/07 00:26:23;;;;;;;;;;;;;;;11.33;60.07;100925.22;1057078;28;645;-60
2022/01/07 00:27:13;;;;;;;;;;;;;;;11.33;59.67;100919.03;1058241;28;649;-60
2022/01/07 00:28:04;;;;;;;;;;;;;;;11.32;60.29;100923.50;1057620;28;844;-60
2022/01/07 00:28:54;;;;;;;;;;;;;;;11.32;60.30;100915.50;1057850;28;668;-60
2022/01/07 00:29:45;;;;;;;;;;;;;;;11.33;59.85;100908.38;1056998;28;834;-60
2022/01/07 00:30:36;;;;;;;;;;;;;;;11.32;60.04;100912.84;1057211;28;645;-60
2022/01/07 00:31:27;;;;;;;;;;;;;;;11.34;59.94;100921.59;1057567;28;637;-60
2022/01/07 00:32:17;;;;;;;;;;;;;;;11.33;60.16;100903.88;1057130;28;655;-60
2022/01/07 00:33:07;;;;;;;;;;;;;;;11.32;59.97;100912.84;1058216;28;684;-60
2022/01/07 00:33:58;;;;;;;;;;;;;;;11.32;59.65;100911.97;1057032;28;867;-60
2022/01/07 00:34:48;;;;;;;;;;;;;;;11.31;60.25;100900.47;1058294;28;649;-60
2022/01/07 00:35:39;;;;;;;;;;;;;;;11.31;59.95;100905.78;1057081;28;708;-60
2022/01/07 00:36:29;;;;;;;;;;;;;;;11.32;59.69;100902.16;1057038;28;1105;-60
2022/01/07 00:37:20;;;;;;;;;;;;;;;11.31;60.18;100895.13;1058153;28;686;-60
2022/01/07 00:38:10;;;;;;;;;;;;;;;11.31;60.13;100900.47;1057038;28;661;-60
2022/01/07 00:39:00;;;;;;;;;;;;;;;11.32;59.92;100890.66;1057248;28;735;-60
2022/01/07 00:39:52;;;;;;;;;;;;;;;11.32;60.16;100886.16;1057765;28;635;-60
2022/01/07 00:40:43;;;;;;;;;;;;;;;11.32;59.98;100887.97;1057881;28;653;-61
2022/01/07 00:41:33;;;;;;;;;;;;;;;11.32;60.04;100877.31;1057649;28;648;-60
2022/01/07 00:42:23;;;;;;;;;;;;;;;11.31;60.10;100873.78;1057653;28;1039;-61
2022/01/07 00:43:14;;;;;;;;;;;;;;;11.32;60.07;100880.84;1057705;28;634;-60
2022/01/07 00:44:04;;;;;;;;;;;;;;;11.33;60.17;100866.53;1057656;28;677;-61
2022/01/07 00:44:55;;;;;;;;;;;;;;;11.34;60.24;100872.72;1058317;28;726;-60
2022/01/07 00:45:45;;;;;;;;;;;;;;;11.34;60.33;100865.56;1057756;28;670;-60
2022/01/07 00:46:35;;;;;;;;;;;;;;;11.33;60.04;100866.53;1057687;28;822;-61
2022/01/07 00:47:26;;;;;;;;;;;;;;;11.34;60.02;100867.38;1057399;28;1332;-61
2022/01/07 00:48:16;;;;;;;;;;;;;;;11.33;60.06;100861.19;1057696;28;625;-61
2022/01/07 00:49:07;;;;;;;;;;;;;;;11.32;59.94;100861.28;1056963;28;771;-61
2022/01/07 00:49:58;;;;;;;;;;;;;;;11.32;60.34;100854.16;1057057;28;799;-61
2022/01/07 00:50:48;;;;;;;;;;;;;;;11.32;60.33;100862.16;1057685;28;781;-61
2022/01/07 00:51:39;;;;;;;;;;;;;;;11.33;60.03;100853.19;1058033;28;1438;-61
2022/01/07 00:52:29;;;;;;;;;;;;;;;11.32;60.31;100848.81;1057044;28;681;-61
2022/01/07 00:53:19;;;;;;;;;;;;;;;11.32;60.04;100851.47;1057325;28;2041;-63
2022/01/07 00:54:10;;;;;;;;;;;;;;;11.32;60.08;100846.16;1058158;28;698;-61
2022/01/07 00:55:00;;;;;;;;;;;;;;;11.32;60.10;100847.97;1057174;28;966;-61
2022/01/07 00:55:51;;;;;;;;;;;;;;;11.32;60.17;100851.47;1057629;28;725;-60
2022/01/07 00:56:41;;;;;;;;;;;;;;;11.31;60.41;100847.09;1056585;28;703;-60
2022/01/07 00:57:32;;;;;;;;;;;;;;;11.33;59.84;100842.53;1058257;28;634;-60
2022/01/07 00:58:22;;;;;;;;;;;;;;;11.33;60.25;100845.19;1057018;28;637;-60
2022/01/07 00:59:12;;;;;;;;;;;;;;;11.33;60.09;100849.66;1057151;28;907;-61
2022/01/07 01:00:03;;;;;;;;;;;;;;;11.34;60.34;100856.72;1057673;28;668;-61
2022/01/07 01:00:53;;;;;;;;;;;;;;;11.34;59.68;100851.38;1057116;28;852;-61
2022/01/07 01:01:44;;;;;;;;;;;;;;;11.33;60.31;100852.34;1058301;28;786;-60
2022/01/07 01:02:34;;;;;;;;;;;;;;;11.33;60.11;100852.34;1056577;28;889;-60
2022/01/07 01:03:24;;;;;;;;;;;;;;;11.33;60.21;100853.19;1056581;28;775;-61
2022/01/07 01:04:15;;;;;;;;;;;;;;;11.32;60.15;100846.16;1056990;28;633;-60
2022/01/07 01:05:05;;;;;;;;;;;;;;;11.33;60.04;100844.34;1057685;28;711;-60
2022/01/07 01:05:58;;;;;;;;;;;;;;;11.32;60.62;100848.81;1058273;28;697;-60
2022/01/07 01:06:48;;;;;;;;;;;;;;;11.32;60.35;100853.28;1057708;28;757;-60
2022/01/07 01:07:39;;;;;;;;;;;;;;;11.31;59.91;100852.44;1058020;28;996;-60
2022/01/07 01:08:29;;;;;;;;;;;;;;;11.32;60.15;100845.28;1057184;28;652;-61
2022/01/07 01:09:20;;;;;;;;;;;;;;;11.32;59.86;100845.28;1057527;28;948;-61
2022/01/07 01:10:10;;;;;;;;;;;;;;;11.32;60.19;100847.97;1057013;28;684;-60
2022/01/07 01:11:00;;;;;;;;;;;;;;;11.32;59.88;100848.81;1056643;28;772;-61
2022/01/07 01:11:51;;;;;;;;;;;;;;;11.33;59.90;100839.00;1057702;28;768;-60
2022/01/07 01:12:41;;;;;;;;;;;;;;;11.32;60.43;100846.16;1057667;28;1901;-61
2022/01/07 01:13:32;;;;;;;;;;;;;;;11.32;60.53;100847.97;1056889;28;752;-61
2022/01/07 01:14:22;;;;;;;;;;;;;;;11.31;60.08;100841.78;1057093;28;661;-60
2022/01/07 01:15:13;;;;;;;;;;;;;;;11.33;60.17;100845.19;1053208;28;678;-60
2022/01/07 01:16:03;;;;;;;;;;;;;;;11.34;60.39;100840.72;1053698;28;865;-61
2022/01/07 01:16:55;;;;;;;;;;;;;;;11.34;60.21;100838.03;1058025;28;724;-60
2022/01/07 01:17:46;;;;;;;;;;;;;;;11.35;60.62;100837.09;1057473;28;776;-61
2022/01/07 01:18:36;;;;;;;;;;;;;;;11.35;60.22;100840.59;1057593;28;623;-60
2022/01/07 01:19:27;;;;;;;;;;;;;;;11.35;60.14;100839.75;1056829;28;618;-60
2022/01/07 01:20:17;;;;;;;;;;;;;;;11.34;60.13;100840.72;1056982;28;633;-60
2022/01/07 01:21:07;;;;;;;;;;;;;;;11.34;59.79;100841.56;1056536;28;1733;-61
2022/01/07 01:21:58;;;;;;;;;;;;;;;11.34;60.37;100836.22;1057541;28;930;-60
2022/01/07 01:22:48;;;;;;;;;;;;;;;11.35;60.09;100837.94;1057729;28;699;-61
2022/01/07 01:23:40;;;;;;;;;;;;;;;11.38;60.33;100836.88;1056863;28;1858;-60
2022/01/07 01:24:30;;;;;;;;;;;;;;;11.36;59.76;100830.78;1057684;28;686;-61
2022/01/07 01:25:21;;;;;;;;;;;;;;;11.35;60.10;100835.28;1058294;28;762;-60
2022/01/07 01:26:11;;;;;;;;;;;;;;;11.35;60.35;100827.25;1056962;28;930;-60
2022/01/07 01:27:02;;;;;;;;;;;;;;;11.35;59.96;100826.41;1058243;28;640;-60
2022/01/07 01:27:52;;;;;;;;;;;;;;;11.34;60.45;100825.56;1056513;28;700;-60
2022/01/07 01:28:42;;;;;;;;;;;;;;;11.34;60.38;100825.56;1056597;28;693;-60
2022/01/07 01:29:33;;;;;;;;;;;;;;;11.34;60.17;100824.69;1058272;28;704;-60
2022/01/07 01:30:27;;;;;;;;;;;;;;;11.34;60.18;100819.38;1057043;28;845;-60
2022/01/07 01:31:18;;;;;;;;;;;;;;;11.34;60.10;100820.22;1057487;28;708;-61
2022/01/07 01:32:08;;;;;;;;;;;;;;;11.33;59.94;100815.00;1057663;28;813;-60
2022/01/07 01:32:59;;;;;;;;;;;;;;;11.34;60.52;100817.56;1057174;28;1947;-61
2022/01/07 01:33:49;;;;;;;;;;;;;;;11.33;59.92;100818.50;1058845;28;673;-61
2022/01/07 01:34:39;;;;;;;;;;;;;;;11.33;60.21;100817.66;1057618;28;919;-61
2022/01/07 01:35:30;;;;;;;;;;;;;;;11.34;60.55;100817.56;1057514;28;793;-61
2022/01/07 01:36:20;;;;;;;;;;;;;;;11.32;60.43;100814.13;1056338;28;1329;-60
2022/01/07 01:37:11;;;;;;;;;;;;;;;11.31;60.27;100815.09;1057667;28;693;-59
2022/01/07 01:38:01;;;;;;;;;;;;;;;11.33;60.49;100813.19;1057716;28;731;-61
2022/01/07 01:38:51;;;;;;;;;;;;;;;11.33;60.16;100817.66;1056576;28;946;-60
2022/01/07 01:39:42;;;;;;;;;;;;;;;11.33;60.36;100815.84;1058250;28;641;-60
2022/01/07 01:40:32;;;;;;;;;;;;;;;11.32;60.67;100810.59;1056492;28;688;-60
2022/01/07 01:41:23;;;;;;;;;;;;;;;11.30;60.26;100808.03;1057090;28;688;-60
2022/01/07 01:42:13;;;;;;;;;;;;;;;11.31;60.13;100811.56;1056952;28;737;-61
2022/01/07 01:43:03;;;;;;;;;;;;;;;11.30;60.65;100818.72;1057516;28;874;-60
2022/01/07 01:43:54;;;;;;;;;;;;;;;11.31;59.95;100814.22;1056907;28;685;-61
2022/01/07 01:44:44;;;;;;;;;;;;;;;11.30;59.87;100812.53;1056600;28;843;-61
2022/01/07 01:45:35;;;;;;;;;;;;;;;11.31;60.51;100814.22;1056927;28;667;-61
2022/01/07 01:46:25;;;;;;;;;;;;;;;11.31;59.86;100814.22;1056367;28;697;-61
2022/01/07 01:47:16;;;;;;;;;;;;;;;11.31;59.90;100811.56;1057967;28;815;-61
2022/01/07 01:48:06;;;;;;;;;;;;;;;11.30;60.27;100799.19;1057027;28;625;-61
2022/01/07 01:48:57;;;;;;;;;;;;;;;11.31;59.88;100804.41;1057072;28;948;-59
2022/01/07 01:49:47;;;;;;;;;;;;;;;11.31;60.57;100798.22;1057707;28;650;-58
2022/01/07 01:50:37;;;;;;;;;;;;;;;11.31;60.42;100804.41;1057464;28;705;-60
2022/01/07 01:51:28;;;;;;;;;;;;;;;11.31;59.94;100803.56;1056958;28;1053;-60
2022/01/07 01:52:18;;;;;;;;;;;;;;;11.32;60.46;100799.94;1057714;28;664;-61
2022/01/07 01:53:09;;;;;;;;;;;;;;;11.31;60.67;100788.41;1058863;28;696;-61
2022/01/07 01:53:59;;;;;;;;;;;;;;;11.30;60.48;100792.03;1058351;28;750;-61
2022/01/07 01:54:49;;;;;;;;;;;;;;;11.30;60.72;100792.03;1057854;28;629;-61
2022/01/07 01:55:40;;;;;;;;;;;;;;;11.31;60.63;100785.75;1058921;28;840;-60
2022/01/07 01:56:30;;;;;;;;;;;;;;;11.30;59.98;100792.03;1058232;28;688;-60
2022/01/07 01:57:21;;;;;;;;;;;;;;;11.30;60.68;100797.38;1058150;28;752;-61
2022/01/07 01:58:11;;;;;;;;;;;;;;;11.32;60.03;100790.13;1058320;28;629;-61
2022/01/07 01:59:01;;;;;;;;;;;;;;;11.32;60.41;100787.47;1057874;28;697;-60
2022/01/07 01:59:52;;;;;;;;;;;;;;;11.31;60.42;100783.06;1058185;28;703;-60
2022/01/07 02:00:42;;;;;;;;;;;;;;;11.32;60.02;100789.25;1057895;28;677;-61
2022/01/07 02:01:33;;;;;;;;;;;;;;;11.31;60.19;100782.22;1058760;28;708;-61
2022/01/07 02:02:24;;;;;;;;;;;;;;;11.31;59.88;100782.22;1058287;28;661;-60
2022/01/07 02:03:14;;;;;;;;;;;;;;;11.31;60.29;100783.06;1058817;28;710;-60
2022/01/07 02:04:04;;;;;;;;;;;;;;;11.30;60.48;100781.38;1058296;28;847;-61
2022/01/07 02:04:56;;;;;;;;;;;;;;;11.29;60.23;100777.00;1057661;28;780;-61
2022/01/07 02:05:47;;;;;;;;;;;;;;;11.29;60.52;100782.31;1058235;28;1073;-61
2022/01/07 02:06:37;;;;;;;;;;;;;;;11.28;60.60;100777.97;1058782;28;1040;-60
2022/01/07 02:07:27;;;;;;;;;;;;;;;11.29;60.34;100774.31;1058461;28;658;-60
2022/01/07 02:08:18;;;;;;;;;;;;;;;11.28;60.36;100774.47;1058155;28;653;-60
2022/01/07 02:09:08;;;;;;;;;;;;;;;11.28;60.65;100771.78;1057769;28;813;-60
2022/01/07 02:09:59;;;;;;;;;;;;;;;11.27;60.28;100768.28;1057788;28;849;-61
2022/01/07 02:10:49;;;;;;;;;;;;;;;11.29;60.31;100770.81;1057060;28;729;-60
2022/01/07 02:11:39;;;;;;;;;;;;;;;11.27;60.04;100765.59;1058286;28;684;-60
2022/01/07 02:12:30;;;;;;;;;;;;;;;11.28;60.39;100767.31;1053675;28;719;-61
2022/01/07 02:13:20;;;;;;;;;;;;;;;11.28;60.37;100769.97;1053754;28;684;-60
2022/01/07 02:14:11;;;;;;;;;;;;;;;11.27;60.51;100765.59;1058158;28;870;-60
2022/01/07 02:15:01;;;;;;;;;;;;;;;11.28;60.23;100758.44;1057158;28;637;-61
2022/01/07 02:15:52;;;;;;;;;;;;;;;11.26;60.82;100769.22;1057808;28;640;-60
2022/01/07 02:16:42;;;;;;;;;;;;;;;11.28;60.58;100767.31;1058366;28;747;-60
2022/01/07 02:17:33;;;;;;;;;;;;;;;11.28;60.53;100771.78;1058911;28;648;-60
2022/01/07 02:18:23;;;;;;;;;;;;;;;11.28;60.21;100766.47;1056966;28;791;-60
2022/01/07 02:19:13;;;;;;;;;;;;;;;11.28;60.49;100769.13;1057779;28;637;-60
2022/01/07 02:20:04;;;;;;;;;;;;;;;11.30;60.44;100769.84;1058821;28;965;-61
2022/01/07 02:20:54;;;;;;;;;;;;;;;11.31;60.38;100763.56;1057805;28;676;-61
2022/01/07 02:21:45;;;;;;;;;;;;;;;11.30;60.28;100767.16;1058728;28;1031;-61
2022/01/07 02:22:35;;;;;;;;;;;;;;;11.29;59.90;100771.66;1058718;28;846;-61
2022/01/07 02:23:25;;;;;;;;;;;;;;;11.29;60.68;100766.31;1058303;28;665;-61
2022/01/07 02:24:16;;;;;;;;;;;;;;;11.29;60.23;100763.66;1061777;27;708;-61
2022/01/07 02:25:06;;;;;;;;;;;;;;;11.31;59.98;100756.41;1061932;27;959;-61
2022/01/07 02:25:57;;;;;;;;;;;;;;;11.31;60.49;100755.53;1061817;27;632;-61
2022/01/07 02:26:47;;;;;;;;;;;;;;;11.31;60.29;100763.56;1061141;27;741;-61
2022/01/07 02:27:38;;;;;;;;;;;;;;;11.29;59.98;100744.97;1061987;27;625;-61
2022/01/07 02:28:28;;;;;;;;;;;;;;;11.30;59.71;100754.69;1061833;27;727;-61
2022/01/07 02:29:18;;;;;;;;;;;;;;;11.30;59.98;100760.03;1061469;27;717;-61
2022/01/07 02:30:09;;;;;;;;;;;;;;;11.32;60.71;100751.91;1061854;27;625;-61
2022/01/07 02:30:59;;;;;;;;;;;;;;;11.31;59.91;100740.38;1061790;27;838;-61
2022/01/07 02:31:50;;;;;;;;;;;;;;;11.31;60.35;100748.41;1061981;27;696;-61
2022/01/07 02:32:40;;;;;;;;;;;;;;;11.32;60.21;100735.91;1061808;27;762;-61
2022/01/07 02:33:30;;;;;;;;;;;;;;;11.30;60.34;100738.69;1062007;27;675;-61
2022/01/07 02:34:22;;;;;;;;;;;;;;;11.30;60.22;100744.03;1061737;27;737;-60
2022/01/07 02:35:12;;;;;;;;;;;;;;;11.31;60.48;100739.53;1056578;28;847;-61
2022/01/07 02:36:02;;;;;;;;;;;;;;;11.30;60.26;100733.34;1057892;28;830;-61
2022/01/07 02:36:53;;;;;;;;;;;;;;;11.30;60.37;100735.16;1062188;27;1007;-61
2022/01/07 02:37:43;;;;;;;;;;;;;;;11.31;60.29;100742.22;1061843;27;633;-61
2022/01/07 02:38:34;;;;;;;;;;;;;;;11.29;60.05;100731.63;1061939;27;649;-61
2022/01/07 02:39:24;;;;;;;;;;;;;;;11.30;60.20;100736.03;1061018;27;838;-61
2022/01/07 02:40:14;;;;;;;;;;;;;;;11.31;60.52;100736.88;1061417;27;672;-60
2022/01/07 02:41:05;;;;;;;;;;;;;;;11.32;60.24;100741.25;1061670;27;853;-62
2022/01/07 02:41:55;;;;;;;;;;;;;;;11.31;60.70;100742.22;1061944;27;633;-60
2022/01/07 02:42:46;;;;;;;;;;;;;;;11.30;60.22;100729.81;1061925;27;624;-61
2022/01/07 02:43:36;;;;;;;;;;;;;;;11.29;60.40;100726.31;1061613;27;836;-61
2022/01/07 02:44:28;;;;;;;;;;;;;;;11.27;59.98;100738.94;1062276;27;731;-61
2022/01/07 02:45:18;;;;;;;;;;;;;;;11.29;60.25;100736.13;1060962;27;765;-61
2022/01/07 02:46:08;;;;;;;;;;;;;;;11.29;60.36;100734.31;1053809;28;1032;-61
2022/01/07 02:46:59;;;;;;;;;;;;;;;11.29;60.58;100731.63;1054436;28;715;-61
2022/01/07 02:48:40;;;;;;;;;;;;;;;11.28;60.75;100729.97;1054415;28;701;-61
2022/01/07 02:49:30;;;;;;;;;;;;;;;11.28;60.30;100729.97;1054398;28;965;-61
2022/01/07 02:50:20;;;;;;;;;;;;;;;11.28;60.08;100729.97;1054481;28;698;-61
2022/01/07 02:51:11;;;;;;;;;;;;;;;11.27;60.28;100733.59;1054370;28;677;-60
2022/01/07 02:52:01;;;;;;;;;;;;;;;11.29;60.35;100730.78;1054425;28;676;-61
2022/01/07 02:52:52;;;;;;;;;;;;;;;11.30;59.75;100732.50;1054328;28;1913;-61
2022/01/07 02:53:42;;;;;;;;;;;;;;;11.30;60.40;100728.00;1054215;28;1196;-60
2022/01/07 02:54:33;;;;;;;;;;;;;;;11.29;59.91;100720.97;1052448;28;618;-60
2022/01/07 02:55:23;;;;;;;;;;;;;;;11.30;60.76;100722.69;1054466;28;839;-60
2022/01/07 02:56:14;;;;;;;;;;;;;;;11.30;60.43;100725.34;1054309;28;904;-61
2022/01/07 02:57:04;;;;;;;;;;;;;;;11.31;60.39;100713.72;1054466;28;633;-61
2022/01/07 02:57:55;;;;;;;;;;;;;;;11.30;60.03;100720.00;1054343;28;901;-60
2022/01/07 02:58:45;;;;;;;;;;;;;;;11.31;60.62;100719.06;1054352;28;758;-61
2022/01/07 02:59:35;;;;;;;;;;;;;;;11.31;59.91;100716.38;1054309;28;637;-60
2022/01/07 03:00:26;;;;;;;;;;;;;;;11.30;59.81;100717.34;1053502;28;731;-61
2022/01/07 03:01:16;;;;;;;;;;;;;;;11.29;60.68;100709.44;1053848;28;642;-60
2022/01/07 03:02:07;;;;;;;;;;;;;;;11.29;60.51;100704.97;1050232;28;842;-61
2022/01/07 03:02:57;;;;;;;;;;;;;;;11.29;60.89;100714.78;1049111;28;675;-61
2022/01/07 03:03:47;;;;;;;;;;;;;;;11.27;60.33;100712.25;1048645;28;622;-61
2022/01/07 03:04:38;;;;;;;;;;;;;;;11.27;60.69;100712.25;1048736;28;723;-61
2022/01/07 03:05:28;;;;;;;;;;;;;;;11.27;60.13;100704.25;1049955;28;636;-61
2022/01/07 03:06:20;;;;;;;;;;;;;;;11.29;60.38;100710.31;1054009;28;1390;-61
2022/01/07 03:07:11;;;;;;;;;;;;;;;11.29;60.38;100712.97;1052433;28;678;-61
2022/01/07 03:08:01;;;;;;;;;;;;;;;11.29;60.63;100709.44;1054443;28;669;-61
2022/01/07 03:08:52;;;;;;;;;;;;;;;11.28;60.01;100711.28;1054190;28;633;-61
2022/01/07 03:09:42;;;;;;;;;;;;;;;11.27;60.15;100704.25;1054330;28;665;-61
2022/01/07 03:10:33;;;;;;;;;;;;;;;11.28;60.20;100703.28;1054197;28;932;-61
2022/01/07 03:11:23;;;;;;;;;;;;;;;11.27;60.53;100708.72;1053206;28;753;-61
2022/01/07 03:12:14;;;;;;;;;;;;;;;11.27;60.40;100703.41;1054302;28;737;-60
2022/01/07 03:13:04;;;;;;;;;;;;;;;11.27;60.36;100698.91;1054324;28;1961;-61
2022/01/07 03:13:54;;;;;;;;;;;;;;;11.25;60.55;100700.84;1054374;28;692;-61
2022/01/07 03:14:48;;;;;;;;;;;;;;;11.26;60.02;100694.53;1054231;28;906;-60
2022/01/07 03:15:38;;;;;;;;;;;;;;;11.27;60.50;100695.38;1053011;28;677;-61
2022/01/07 03:16:29;;;;;;;;;;;;;;;11.26;60.58;100702.53;1054157;28;764;-62
2022/01/07 03:17:19;;;;;;;;;;;;;;;11.25;60.85;100702.66;1054301;28;693;-61
2022/01/07 03:18:09;;;;;;;;;;;;;;;11.27;60.23;100696.25;1054442;28;677;-61
2022/01/07 03:19:00;;;;;;;;;;;;;;;11.25;60.52;100681.31;1054773;28;850;-61
2022/01/07 03:19:50;;;;;;;;;;;;;;;11.26;60.77;100705.19;1054256;28;636;-58
2022/01/07 03:20:42;;;;;;;;;;;;;;;11.27;60.69;100690.06;1054136;28;725;-59
2022/01/07 03:21:32;;;;;;;;;;;;;;;11.25;60.78;100692.81;1052377;28;1421;-59
2022/01/07 03:22:23;;;;;;;;;;;;;;;11.25;60.14;100692.81;1054233;28;807;-59
2022/01/07 03:23:13;;;;;;;;;;;;;;;11.25;59.94;100692.81;1054189;28;855;-59
2022/01/07 03:24:03;;;;;;;;;;;;;;;11.24;60.85;100685.78;1054327;28;657;-59
2022/01/07 03:24:54;;;;;;;;;;;;;;;11.26;59.97;100689.19;1054067;28;820;-59
2022/01/07 03:25:44;;;;;;;;;;;;;;;11.27;60.86;100679.38;1054179;28;689;-59
2022/01/07 03:26:35;;;;;;;;;;;;;;;11.28;60.72;100692.63;1054149;28;670;-59
2022/01/07 03:27:25;;;;;;;;;;;;;;;11.29;59.85;100680.09;1054164;28;629;-60
2022/01/07 03:28:15;;;;;;;;;;;;;;;11.29;60.63;100678.28;1054341;28;681;-58
2022/01/07 03:29:06;;;;;;;;;;;;;;;11.29;60.49;100682.78;1048887;28;860;-58
2022/01/07 03:29:56;;;;;;;;;;;;;;;11.29;60.52;100678.28;1049554;28;640;-59
2022/01/07 03:30:47;;;;;;;;;;;;;;;11.30;60.51;100669.31;1049091;28;645;-59
2022/01/07 03:31:37;;;;;;;;;;;;;;;11.31;60.12;100676.38;1052357;28;903;-59
2022/01/07 03:32:27;;;;;;;;;;;;;;;11.31;60.03;100672.84;1054323;28;789;-59
2022/01/07 03:33:19;;;;;;;;;;;;;;;11.30;60.05;100677.31;1054943;28;943;-59
2022/01/07 03:34:10;;;;;;;;;;;;;;;11.31;60.02;100675.50;1054285;28;618;-59
2022/01/07 03:35:00;;;;;;;;;;;;;;;11.30;60.34;100669.31;1049758;28;700;-59
2022/01/07 03:35:50;;;;;;;;;;;;;;;11.30;60.14;100671.13;1050276;28;826;-59
2022/01/07 03:36:41;;;;;;;;;;;;;;;11.30;60.06;100669.31;1053932;28;1037;-59
2022/01/07 03:37:31;;;;;;;;;;;;;;;11.29;60.04;100672.94;1054191;28;870;-59
2022/01/07 03:38:22;;;;;;;;;;;;;;;11.30;60.42;100679.13;1054258;28;704;-59
2022/01/07 03:39:12;;;;;;;;;;;;;;;11.29;60.34;100662.28;1054328;28;637;-59
2022/01/07 03:40:02;;;;;;;;;;;;;;;11.29;60.58;100664.94;1050109;28;767;-59
2022/01/07 03:40:53;;;;;;;;;;;;;;;11.29;60.37;100669.44;1048842;28;685;-59
2022/01/07 03:41:44;;;;;;;;;;;;;;;11.29;60.43;100666.75;1053141;28;705;-59
2022/01/07 03:42:35;;;;;;;;;;;;;;;11.27;60.13;100658.91;1053625;28;655;-59
2022/01/07 03:43:25;;;;;;;;;;;;;;;11.28;60.50;100660.59;1054939;28;1053;-59
2022/01/07 03:44:15;;;;;;;;;;;;;;;11.28;60.33;100660.59;1049715;28;700;-59
2022/01/07 03:45:06;;;;;;;;;;;;;;;11.29;60.61;100670.28;1049866;28;625;-59
2022/01/07 03:45:56;;;;;;;;;;;;;;;11.30;60.05;100673.81;1054639;28;843;-59
2022/01/07 03:46:47;;;;;;;;;;;;;;;11.28;60.68;100665.09;1054716;28;653;-59
2022/01/07 03:47:37;;;;;;;;;;;;;;;11.27;60.00;100658.91;1054682;28;1113;-59
2022/01/07 03:48:27;;;;;;;;;;;;;;;11.27;60.38;100668.72;1054847;28;652;-59
2022/01/07 03:49:18;;;;;;;;;;;;;;;11.27;60.31;100663.38;1054271;28;673;-60
2022/01/07 03:50:08;;;;;;;;;;;;;;;11.27;60.86;100658.03;1054190;28;823;-59
2022/01/07 03:50:59;;;;;;;;;;;;;;;11.27;60.30;100658.03;1054254;28;676;-59
2022/01/07 03:51:49;;;;;;;;;;;;;;;11.27;60.63;100658.91;1054169;28;637;-59
2022/01/07 03:52:40;;;;;;;;;;;;;;;11.26;60.48;100653.66;1054222;28;712;-59
2022/01/07 03:53:30;;;;;;;;;;;;;;;11.27;60.11;100655.38;1054138;28;1268;-59
2022/01/07 03:54:20;;;;;;;;;;;;;;;11.27;60.23;100652.72;1054117;28;869;-59
2022/01/07 03:55:11;;;;;;;;;;;;;;;11.26;60.39;100659.84;1054218;28;963;-59
2022/01/07 03:56:01;;;;;;;;;;;;;;;11.27;60.61;100648.22;1054935;28;614;-59
2022/01/07 03:56:52;;;;;;;;;;;;;;;11.28;60.83;100654.41;1053001;28;642;-59
2022/01/07 03:57:42;;;;;;;;;;;;;;;11.28;60.69;100649.94;1054176;28;637;-59
2022/01/07 03:58:33;;;;;;;;;;;;;;;11.29;60.88;100656.09;1054125;28;958;-59
2022/01/07 03:59:23;;;;;;;;;;;;;;;11.29;60.05;100648.09;1054205;28;686;-59
2022/01/07 04:00:14;;;;;;;;;;;;;;;11.28;60.47;100647.28;1054302;28;673;-59
2022/01/07 04:01:04;;;;;;;;;;;;;;;11.28;60.29;100643.75;1049933;28;787;-59
2022/01/07 04:01:54;;;;;;;;;;;;;;;11.28;60.08;100644.59;1049019;28;665;-59
2022/01/07 04:02:45;;;;;;;;;;;;;;;11.29;60.86;100643.59;1053438;28;916;-59
2022/01/07 04:03:35;;;;;;;;;;;;;;;11.28;59.90;100649.09;1054208;28;668;-59
2022/01/07 04:04:26;;;;;;;;;;;;;;;11.28;60.51;100641.06;1054766;28;700;-59
2022/01/07 04:05:19;;;;;;;;;;;;;;;11.27;60.69;100636.72;1054725;28;623;-60
2022/01/07 04:06:10;;;;;;;;;;;;;;;11.28;60.35;100643.75;1053201;28;695;-60
2022/01/07 04:07:00;;;;;;;;;;;;;;;11.28;60.35;100633.94;1054658;28;960;-60
2022/01/07 04:07:51;;;;;;;;;;;;;;;11.29;60.38;100640.94;1054657;28;704;-60
2022/01/07 04:08:41;;;;;;;;;;;;;;;11.29;60.36;100650.75;1054114;28;750;-60
2022/01/07 04:09:31;;;;;;;;;;;;;;;11.28;60.35;100638.41;1054211;28;758;-59
2022/01/07 04:10:22;;;;;;;;;;;;;;;11.28;60.79;100633.94;1054294;28;689;-59
2022/01/07 04:11:12;;;;;;;;;;;;;;;11.27;60.51;100634.88;1054106;28;872;-60
2022/01/07 04:12:03;;;;;;;;;;;;;;;11.28;60.51;100633.94;1054706;28;703;-60
2022/01/07 04:12:54;;;;;;;;;;;;;;;11.27;60.22;100629.56;1052915;28;1902;-60
2022/01/07 04:13:44;;;;;;;;;;;;;;;11.27;60.45;100642.91;1054700;28;720;-60
2022/01/07 04:14:34;;;;;;;;;;;;;;;11.27;60.63;100634.88;1054160;28;633;-60
2022/01/07 04:15:25;;;;;;;;;;;;;;;11.27;60.07;100648.22;1054091;28;756;-60
2022/01/07 04:16:15;;;;;;;;;;;;;;;11.26;60.52;100640.34;1054165;28;780;-60
2022/01/07 04:17:07;;;;;;;;;;;;;;;11.25;60.15;100634.16;1054091;28;846;-60
2022/01/07 04:17:57;;;;;;;;;;;;;;;11.26;60.68;100633.19;1053074;28;731;-60
2022/01/07 04:18:48;;;;;;;;;;;;;;;11.25;60.19;100631.47;1054122;28;609;-60
2022/01/07 04:19:38;;;;;;;;;;;;;;;11.26;60.52;100632.34;1054083;28;784;-60
2022/01/07 04:20:29;;;;;;;;;;;;;;;11.27;60.09;100626.88;1054657;28;681;-60
2022/01/07 04:21:19;;;;;;;;;;;;;;;11.25;60.38;100628.81;1053951;28;1035;-60
2022/01/07 04:22:10;;;;;;;;;;;;;;;11.25;60.30;100631.47;1054118;28;707;-60
2022/01/07 04:23:00;;;;;;;;;;;;;;;11.27;61.03;100631.38;1054177;28;714;-60
2022/01/07 04:23:50;;;;;;;;;;;;;;;11.27;60.47;100634.88;1053973;28;855;-59
2022/01/07 04:24:41;;;;;;;;;;;;;;;11.25;60.32;100634.16;1054114;28;665;-60
2022/01/07 04:25:31;;;;;;;;;;;;;;;11.27;60.63;100632.22;1054010;28;735;-60
2022/01/07 04:26:22;;;;;;;;;;;;;;;11.27;60.47;100637.56;1054116;28;745;-59